KTYS/TYS METAR and TAF weather

Enter ICAO airport designator
Station Type Date Time Source
KTYS METAR 2021/09/25 11:18 UTC NOAA

KTYS 251118Z 00000KT 2SM BR FEW002 SCT150 SCT250 10/10 A3012 RMK AO2 SFC VIS 6 T01000100


Station Type Date Time Source
KTYS Decoded METAR 2021/09/25 11:18 UTC NOAA

MCGHEE TYSON AIRPORT, TN, United States (KTYS) 35-49N 083-59W 302M
Sep 25, 2021 - 07:18 AM EDT / 2021.09.25 1118 UTC
Wind: Calm:0
Visibility: 2 mile(s):0
Sky conditions: partly cloudy
Weather: mist
Temperature: 50.0 F (10.0 C)
Dew Point: 50.0 F (10.0 C)
Relative Humidity: 100%
Pressure (altimeter): 30.12 in. Hg (1019 hPa)
ob: KTYS 251118Z 00000KT 2SM BR FEW002 SCT150 SCT250 10/10 A3012 RMK AO2 SFC VIS 6 T01000100
cycle: 11

Station Type Date Time Source
KTYS TAF 2021/09/25 12:36 UTC NOAA

TAF KTYS 251133Z 2512/2612 00000KT 2SM BR SCT002 SCT250
TEMPO 2512/2514 5SM BR BKN002
FM251400 23003KT P6SM SCT250
FM252100 23006KT P6SM SCT120
FM260000 VRB03KT P6SM SCT060
FM260900 00000KT 5SM BR SCT250

Example: see airport list